Latest Weather Observations for Truscott

IDD60801

Issued at 9:01 pm CST Saturday 28 May 2016 (issued every 30 minutes, with the page automatically refreshed every 10 minutes)

About weather observations | Map of weather stations | Latest weather observations for NT | Other Formats
Station Details ID: 001020 Name: TRUSCOTT Lat: -14.09 Lon: 126.39 Height: 51.0 m
Data from the previous 72 hours. | See also: Recent months at Truscott
Date/Time
CST
Temp
°C
App
Temp
°C
Dew
Point
Rel
Hum
%
Delta-T
°C
Wind Press
QNH
hPa
Press
MSL
hPa
Rain
since 9 am
mm
Dir
 
Spd
km/h
Gust
km/h
Spd
kts
Gust
kts
28/09:00pm 28.0 31.8 22.7 73 3.6 W 7 9 4 5 1011.7 1011.4 0.0
28/08:30pm 28.4 32.1 22.2 69 4.2 W 6 7 3 4 1011.4 1011.1 0.0
28/08:00pm 28.8 32.5 22.5 68 4.3 WNW 7 9 4 5 1011.0 1010.7 0.0
28/07:30pm 29.4 33.3 23.6 71 4.0 WNW 9 13 5 7 1010.8 1010.5 0.0
28/07:00pm 29.8 33.6 22.8 66 4.8 NW 7 11 4 6 1010.5 1010.2 0.0
28/06:30pm 30.8 33.0 19.5 51 7.4 WNW 7 9 4 5 1010.4 1010.1 0.0
28/06:00pm 31.9 34.3 20.8 51 7.4 W 9 13 5 7 1010.1 1009.8 0.0
28/05:30pm 32.5 34.2 20.1 48 8.2 WNW 11 15 6 8 1010.0 1009.7 0.0
28/05:00pm 32.7 33.6 19.2 44 8.9 W 13 17 7 9 1009.9 1009.6 0.0
28/04:30pm 33.0 33.3 18.0 41 9.7 WNW 13 24 7 13 1009.7 1009.4 0.0
28/04:00pm 33.0 34.0 19.5 45 8.9 WNW 13 20 7 11 1009.8 1009.5 0.0
28/03:30pm 33.7 33.1 16.6 36 10.9 WNW 15 22 8 12 1010.0 1009.7 0.0
28/03:00pm 33.4 32.1 15.8 34 11.0 WNW 17 22 9 12 1010.3 1010.0 0.0
28/02:30pm 34.3 33.2 15.2 31 11.9 WNW 15 20 8 11 1010.7 1010.4 0.0
28/02:00pm 34.0 32.9 16.4 35 11.2 W 17 22 9 12 1011.0 1010.7 0.0
28/01:30pm 33.8 33.0 16.2 35 11.1 WNW 15 20 8 11 1011.7 1011.4 0.0
28/01:00pm 33.4 33.5 17.5 38 10.2 W 13 19 7 10 1012.1 1011.8 0.0
28/12:30pm 33.5 33.8 18.0 39 10.0 W 13 19 7 10 1012.4 1012.1 0.0
28/12:00pm 33.0 33.0 18.0 41 9.7 W 15 24 8 13 1012.9 1012.6 0.0
28/11:30am 32.9 34.0 19.7 45 8.7 SSW 13 17 7 9 1013.3 1013.0 0.0
28/11:00am 31.9 33.5 19.9 49 7.9 SW 11 17 6 9 1013.7 1013.4 0.0
28/10:30am 31.2 33.5 21.4 56 6.6 SW 11 15 6 8 1014.0 1013.7 0.0
28/10:00am 30.2 33.5 22.6 63 5.2 WSW 9 17 5 9 1014.0 1013.7 0.0
28/09:30am 29.4 33.5 24.0 72 3.7 SW 9 15 5 8 1013.9 1013.6 0.0
28/09:00am 28.3 32.6 24.3 79 2.8 SW 9 13 5 7 1013.6 1013.3 0.0
28/08:30am 27.4 32.1 24.3 83 2.1 SW 7 11 4 6 1013.3 1013.0 0.0
28/08:00am 26.3 31.0 24.3 89 1.4 SSW 7 9 4 5 1013.2 1012.9 0.0
28/07:30am 25.5 30.0 23.7 90 1.2 SSW 6 7 3 4 1013.0 1012.7 0.0
28/07:00am 26.0 30.8 24.4 91 1.1 SW 7 9 4 5 1012.7 1012.4 0.0
28/06:30am 26.2 31.0 24.4 90 1.2 SW 7 11 4 6 1012.4 1012.1 0.0
28/06:00am 26.3 31.2 24.7 91 1.1 SW 7 11 4 6 1012.4 1012.1 0.0
28/05:30am 26.3 31.1 24.5 90 1.2 SW 7 9 4 5 1012.4 1012.1 0.0
28/05:00am 26.3 30.9 24.2 88 1.5 SW 7 7 4 4 1012.3 1012.0 0.0
28/04:30am 26.6 31.1 23.9 85 1.9 WSW 7 9 4 5 1012.3 1012.0 0.0
28/04:00am 26.9 30.9 23.8 83 2.1 WSW 9 11 5 6 1012.2 1011.9 0.0
28/03:30am 27.0 31.1 23.9 83 2.1 WSW 9 11 5 6 1012.3 1012.0 0.0
28/03:00am 27.1 31.2 24.0 83 2.1 W 9 11 5 6 1012.7 1012.4 0.0
28/02:30am 27.1 31.5 24.4 85 1.9 W 9 11 5 6 1012.8 1012.5 0.0
28/02:00am 27.2 31.9 24.3 84 2.0 W 7 11 4 6 1013.0 1012.7 0.0
28/01:30am 27.1 31.7 24.2 84 2.0 W 7 11 4 6 1012.9 1012.6 0.0
28/01:00am 27.2 31.5 24.3 84 2.0 WSW 9 11 5 6 1013.1 1012.8 0.0
28/12:30am 27.4 32.2 24.5 84 2.0 W 7 11 4 6 1013.2 1012.9 0.0
28/12:00am 27.6 31.9 24.2 82 2.4 W 9 11 5 6 1013.3 1013.0 0.0
 
Date/Time
CST
Temp
°C
App
Temp
°C
Dew
Point
Rel
Hum
%
Delta-T
°C
Wind Press
QNH
hPa
Press
MSL
hPa
Rain
since 9 am
mm
Dir
 
Spd
km/h
Gust
km/h
Spd
kts
Gust
kts
27/11:30pm 27.0 31.7 23.9 83 2.1 WNW 6 7 3 4 1013.3 1013.0 0.0
27/11:00pm 27.4 31.8 23.8 81 2.5 W 7 11 4 6 1013.4 1013.1 0.0
27/10:30pm 27.6 31.9 23.6 79 2.7 W 7 11 4 6 1013.5 1013.2 0.0
27/10:00pm 27.7 32.1 23.5 78 2.9 WSW 6 11 3 6 1013.2 1012.9 0.0
27/09:30pm 27.9 32.2 23.3 76 3.2 W 6 7 3 4 1013.0 1012.7 0.0
27/09:00pm 27.8 31.8 22.7 74 3.5 WNW 6 6 3 3 1012.7 1012.4 0.0
27/08:30pm 28.3 32.0 22.5 71 3.9 WNW 7 9 4 5 1012.3 1012.0 0.0
27/08:00pm 28.4 32.0 22.4 70 4.1 NW 7 9 4 5 1011.9 1011.6 0.0
27/07:30pm 28.9 32.5 22.4 68 4.4 NNW 7 11 4 6 1011.6 1011.3 0.0
27/07:00pm 29.2 32.7 22.2 66 4.7 NW 7 9 4 5 1011.3 1011.0 0.0
27/06:30pm 29.9 32.8 21.8 62 5.5 NW 9 13 5 7 1011.0 1010.7 0.0
27/06:00pm 30.7 32.8 20.9 56 6.5 NW 11 19 6 10 1010.9 1010.6 0.0
27/05:30pm 31.4 33.8 21.6 56 6.6 NW 11 17 6 9 1010.7 1010.4 0.0
27/05:00pm 31.4 33.1 21.0 54 7.0 NNW 13 20 7 11 1010.6 1010.3 0.0
27/04:30pm 32.1 33.5 21.0 52 7.5 N 15 20 8 11 1010.5 1010.2 0.0
27/04:00pm 32.5 33.9 21.0 50 7.7 NNW 15 19 8 10 1010.6 1010.3 0.0
27/03:30pm 33.0 34.3 20.9 49 8.1 NW 15 20 8 11 1010.8 1010.5 0.0
27/03:00pm 33.7 34.5 19.0 42 9.7 NNW 13 20 7 11 1010.9 1010.6 0.0
27/02:30pm 34.5 35.5 17.7 37 10.9 NNW 9 15 5 8 1011.3 1011.0 0.0
27/02:00pm 34.4 35.0 17.6 37 10.8 WNW 11 17 6 9 1011.6 1011.3 0.0
27/01:30pm 33.9 35.6 18.4 40 10.1 NW 7 13 4 7 1012.0 1011.7 0.0
27/01:00pm 34.1 35.1 17.8 38 10.5 SW 9 15 5 8 1012.6 1012.3 0.0
27/12:30pm 33.4 33.5 17.5 38 10.2 SW 13 19 7 10 1013.1 1012.8 0.0
27/12:00pm 32.7 32.9 18.5 43 9.2 SW 15 20 8 11 1013.7 1013.4 0.0
27/11:30am 32.2 32.6 19.1 45 8.6 WSW 15 22 8 12 1014.1 1013.8 0.0
27/11:00am 31.4 31.7 18.7 46 8.3 SW 15 20 8 11 1014.7 1014.4 0.0
27/10:30am 30.6 30.6 19.0 50 7.5 SW 17 20 9 11 1014.8 1014.5 -
27/10:00am 30.1 30.7 19.5 53 6.9 SW 15 20 8 11 1014.9 1014.6 -
27/09:30am 29.0 30.1 19.6 57 6.1 SSW 13 20 7 11 1014.8 1014.5 -
27/09:00am 27.9 30.1 21.2 67 4.5 SW 11 15 6 8 1014.6 1014.3 -
27/08:30am 26.6 29.5 22.4 78 2.8 SW 11 15 6 8 1014.4 1014.1 -
27/08:00am 26.0 29.2 22.3 80 2.5 SW 9 13 5 7 1014.2 1013.9 -
27/07:30am 25.3 28.6 22.6 85 1.8 SW 9 13 5 7 1013.7 1013.4 -
27/07:00am 25.6 29.8 23.5 88 1.4 WSW 7 11 4 6 1013.4 1013.1 -
27/06:30am 23.4 28.1 22.6 95 0.5 S 2 6 1 3 1013.2 1012.9 -
27/06:00am 23.5 27.7 22.5 94 0.7 SSE 4 6 2 3 1012.9 1012.6 -
27/05:30am 23.8 27.6 22.4 92 0.9 S 6 7 3 4 1012.7 1012.4 -
27/05:00am 24.9 28.5 22.4 86 1.7 SSW 7 9 4 5 1012.6 1012.3 -
27/04:30am 25.9 29.7 23.4 86 1.7 SSW 9 11 5 6 1012.7 1012.4 0.0
27/04:00am 26.0 29.7 23.3 85 1.8 SW 9 11 5 6 1012.9 1012.6 -
27/03:30am 26.0 29.6 23.1 84 2.0 SW 9 11 5 6 1013.2 1012.9 -
27/03:00am 26.1 29.7 23.0 83 2.1 SSW 9 13 5 7 1013.3 1013.0 -
27/02:30am 26.3 30.3 23.8 86 1.7 SW 9 11 5 6 1013.5 1013.2 -
27/02:00am 26.5 30.5 23.8 85 1.9 SW 9 11 5 6 1013.6 1013.3 -
27/01:30am 26.4 30.9 23.9 86 1.7 WSW 7 9 4 5 1013.6 1013.3 -
27/01:00am 25.2 30.5 23.1 88 1.4 CALM 0 0 0 0 1013.5 1013.2 -
27/12:30am 25.4 30.7 23.1 87 1.6 CALM 0 0 0 0 1013.5 1013.2 -
27/12:00am 25.8 30.9 22.7 83 2.1 CALM 0 0 0 0 1013.6 1013.3 -
 
Date/Time
CST
Temp
°C
App
Temp
°C
Dew
Point
Rel
Hum
%
Delta-T
°C
Wind Press
QNH
hPa
Press
MSL
hPa
Rain
since 9 am
mm
Dir
 
Spd
km/h
Gust
km/h
Spd
kts
Gust
kts
26/11:30pm 26.8 31.0 23.1 80 2.5 W 6 7 3 4 1013.7 1013.4 -
26/11:00pm 26.8 30.7 22.6 78 2.8 WSW 6 7 3 4 1013.7 1013.4 -
26/10:30pm 27.1 31.2 22.3 75 3.2 WSW 4 7 2 4 1013.7 1013.4 -
26/10:12pm 27.2 30.3 22.2 74 3.4 W 9 11 5 6 1013.7 1013.4 -
26/10:02pm 26.9 30.4 21.9 74 3.4 W 6 7 3 4 1013.7 1013.4 -
26/10:00pm 26.9 30.4 21.9 74 3.4 W 6 7 3 4 1013.7 1013.4 -
26/09:30pm 27.1 30.6 21.8 73 3.6 W 6 7 3 4 1013.7 1013.4 -
26/09:00pm 27.2 30.5 21.5 71 3.8 WNW 6 7 3 4 1013.4 1013.1 -
26/08:30pm 27.2 31.5 21.2 69 4.0 CALM 0 0 0 0 1013.2 1012.9 -
26/08:00pm 28.1 31.2 21.1 65 4.7 NW 6 7 3 4 1012.9 1012.6 -
26/07:30pm 28.6 32.5 21.1 64 5.0 NNW 2 - 1 - - 1012.2 -
26/07:00pm 28.9 32.3 21.7 65 4.8 N 6 9 3 5 1012.2 1011.9 0.0
26/06:30pm 29.7 32.9 21.6 61 5.5 NW 7 13 4 7 1012.0 1011.7 0.0
26/06:00pm 30.8 32.8 20.7 55 6.7 NNW 11 17 6 9 1011.5 1011.2 0.0
26/05:30pm 31.2 33.0 21.1 55 6.8 NNW 13 19 7 10 1011.3 1011.0 0.0
26/05:00pm 31.7 33.1 20.3 50 7.6 NNW 13 20 7 11 1011.1 1010.8 0.0
26/04:30pm 32.1 33.3 20.0 48 8.0 NNW 13 19 7 10 1011.0 1010.7 0.0
26/04:00pm 32.7 33.9 19.9 46 8.5 NNW 13 19 7 10 1011.2 1010.9 0.0
26/03:30pm 32.9 34.0 19.7 45 8.7 NNW 13 19 7 10 1011.2 1010.9 0.0
26/03:00pm 33.1 32.6 16.9 38 10.3 NNW 15 20 8 11 1011.4 1011.1 0.0
26/02:30pm 33.9 34.7 17.2 37 10.7 NNW 9 17 5 9 1011.7 1011.4 0.0
26/02:00pm 33.7 33.2 17.0 37 10.7 ESE 15 24 8 13 1012.0 1011.7 0.0
26/01:30pm 33.9 33.8 14.9 32 11.8 ENE 9 17 5 9 1012.6 1012.3 0.0
26/01:00pm 33.9 35.6 17.2 37 10.7 ESE 4 13 2 7 1013.0 1012.7 0.0
26/12:30pm 33.4 35.1 17.1 37 10.4 ESE 4 11 2 6 1013.6 1013.3 0.0
26/12:00pm 32.2 33.3 18.0 42 9.2 W 9 13 5 7 1014.0 1013.7 0.0
26/11:30am 31.8 32.6 17.3 42 9.2 SSW 9 15 5 8 1014.4 1014.1 0.0
26/11:00am 31.3 32.4 17.9 44 8.6 W 9 13 5 7 1014.6 1014.3 0.0
26/10:30am 30.6 32.0 18.7 49 7.7 SW 9 13 5 7 1014.7 1014.4 0.0
26/10:00am 29.8 32.0 19.5 54 6.7 SW 7 13 4 7 1014.7 1014.4 0.0
26/09:30am 28.9 31.1 20.4 60 5.6 SSW 9 13 5 7 1014.6 1014.3 0.0
26/09:00am 27.8 30.4 20.4 64 4.9 SSW 7 9 4 5 1014.4 1014.1 0.0
26/08:30am 26.5 30.3 21.0 72 3.6 SSW 2 7 1 4 1014.2 1013.9 0.0
26/08:00am 24.6 29.0 22.1 86 1.7 SW 2 6 1 3 1013.8 1013.5 0.0
26/07:30am 23.3 27.9 21.7 91 1.1 CALM 0 0 0 0 1013.4 1013.1 0.0
26/07:00am 23.7 27.2 21.8 89 1.3 S 6 7 3 4 1013.1 1012.8 0.0
26/06:30am 23.8 27.3 21.9 89 1.3 S 6 7 3 4 1012.9 1012.6 0.0
26/06:00am 23.9 27.6 22.2 90 1.1 S 6 7 3 4 1012.7 1012.4 0.0
26/05:30am 23.9 27.9 22.0 89 1.3 S 4 7 2 4 1012.6 1012.3 0.0
26/05:00am 23.9 28.7 22.2 90 1.1 CALM 0 0 0 0 1012.5 1012.2 0.0
26/04:30am 23.9 28.5 21.8 88 1.4 CALM 0 0 0 0 1012.6 1012.3 0.0
26/04:00am 23.9 28.4 21.6 87 1.5 CALM 0 0 0 0 1012.5 1012.2 0.0
26/03:30am 24.3 29.0 22.0 87 1.5 CALM 0 0 0 0 1012.5 1012.2 0.0
26/03:00am 24.1 28.5 21.4 85 1.8 CALM 0 0 0 0 1012.7 1012.4 0.0
26/02:30am 24.7 29.3 21.8 84 1.9 CALM 0 0 0 0 1012.9 1012.6 0.0
26/02:00am 24.2 28.7 21.5 85 1.8 CALM 0 2 0 1 1012.9 1012.6 0.0
26/01:30am 24.3 28.3 21.4 84 1.9 ENE 2 6 1 3 1012.9 1012.6 0.0
26/01:00am 24.6 28.9 21.1 81 2.3 CALM 0 0 0 0 1013.1 1012.8 0.0
26/12:30am 24.8 29.1 21.1 80 2.4 CALM 0 0 0 0 1013.2 1012.9 0.0
26/12:00am 25.0 29.3 21.1 79 2.6 CALM 0 0 0 0 1013.3 1013.0 0.0
 
Date/Time
CST
Temp
°C
App
Temp
°C
Dew
Point
Rel
Hum
%
Delta-T
°C
Wind Press
QNH
hPa
Press
MSL
hPa
Rain
since 9 am
mm
Dir
 
Spd
km/h
Gust
km/h
Spd
kts
Gust
kts
25/11:30pm 25.1 29.3 21.0 78 2.7 CALM 0 0 0 0 1013.3 1013.0 0.0
25/11:00pm 25.2 29.3 20.7 76 3.0 CALM 0 0 0 0 1013.4 1013.1 0.0

Other Formats:

Comma delimited format used in spreadsheet applications
http://www.bom.gov.au/fwo/IDD60801/IDD60801.95101.axf

JavaScript Object Notation format (JSON) in row-major order
http://www.bom.gov.au/fwo/IDD60801/IDD60801.95101.json